Terminal Aerodrome Forecast
Issued by NWS Quad Cities IA IL

Home | Current Version | Previous Version | Graphics & Text | Print | Product List | Glossary On
Versions: 1 2 3 4 5 6 7 8 9 10 11 12 13 14 15 16 17 18 19 20 21 22 23 24 25
000
FTUS43 KDVN 060500
TAFDBQ
TAF
KDBQ 060520Z 0606/0706 20005KT P6SM SKC
     FM060900 19009KT P6SM SCT100
     FM061600 22015G22KT P6SM SCT250
     FM070000 23008KT P6SM SCT250=

USA.gov is the U.S. government's official web portal to all federal, state and local government web resources and services.